Time;durP1;ratioP1;P1;durP2;ratioP2;P2;SDS_P1;SDS_P2;PMS_P1;PMS_P2;Temp;Humidity;BMP_temperature;BMP_pressure;BME280_temperature;BME280_humidity;BME280_pressure;Samples;Min_cycle;Max_cycle;Signal;HPM_P1;HPM_P2
2022/10/29 00:00:51;;;;;;;15.93;4.20;;;13.00;99.90;;;;;;5055781;28;20544;-84
2022/10/29 00:03:19;;;;;;;12.50;4.20;;;13.00;99.90;;;;;;5054937;28;20041;-84
2022/10/29 00:05:56;;;;;;;16.02;4.05;;;13.00;99.90;;;;;;5062818;28;20043;-84
2022/10/29 00:08:24;;;;;;;14.70;3.90;;;13.00;99.90;;;;;;5074722;28;20426;-84
2022/10/29 00:10:51;;;;;;;14.98;3.40;;;12.90;99.90;;;;;;5058168;28;20032;-84
2022/10/29 00:13:17;;;;;;;13.43;4.03;;;12.90;99.90;;;;;;5057394;28;20533;-84
2022/10/29 00:15:44;;;;;;;11.35;4.40;;;12.90;99.90;;;;;;5041778;28;20377;-83
2022/10/29 00:18:11;;;;;;;11.40;3.78;;;12.90;99.90;;;;;;5058211;28;20036;-84
2022/10/29 00:20:37;;;;;;;19.20;3.65;;;12.80;99.90;;;;;;5041362;28;20154;-84
2022/10/29 00:23:04;;;;;;;8.25;3.22;;;12.80;99.90;;;;;;5057243;28;20068;-83
2022/10/29 00:25:31;;;;;;;9.48;3.17;;;12.80;99.90;;;;;;5037837;28;20093;-84
2022/10/29 00:27:57;;;;;;;11.75;3.05;;;12.50;99.90;;;;;;5038088;28;20048;-83
2022/10/29 00:30:24;;;;;;;9.88;3.03;;;12.80;99.90;;;;;;5021538;28;20385;-84
2022/10/29 00:32:51;;;;;;;11.38;3.55;;;12.70;99.90;;;;;;5021700;28;20455;-84
2022/10/29 00:35:18;;;;;;;12.20;3.50;;;12.50;99.90;;;;;;5037835;28;20144;-84
2022/10/29 00:37:44;;;;;;;14.77;3.45;;;12.80;99.90;;;;;;5037698;28;20199;-83
2022/10/29 00:40:11;;;;;;;10.32;3.30;;;12.80;99.90;;;;;;5021553;28;20174;-84
2022/10/29 00:42:38;;;;;;;13.70;4.00;;;12.80;99.90;;;;;;5026973;28;20484;-83
2022/10/29 00:45:05;;;;;;;9.27;3.03;;;12.70;99.90;;;;;;5057673;28;20503;-84
2022/10/29 00:47:35;;;;;;;12.48;3.88;;;12.70;99.90;;;;;;5057567;28;20040;-84
2022/10/29 00:50:11;;;;;;;17.10;4.18;;;12.70;99.90;;;;;;5090464;28;20075;-84
2022/10/29 00:52:42;;;;;;;11.25;3.30;;;12.70;99.90;;;;;;5070919;28;20068;-83
2022/10/29 00:55:11;;;;;;;7.57;3.15;;;12.70;99.90;;;;;;5053710;28;20048;-83
2022/10/29 00:57:40;;;;;;;13.70;4.38;;;12.60;99.90;;;;;;5053956;28;20036;-84
2022/10/29 01:00:08;;;;;;;16.15;3.67;;;12.60;99.90;;;;;;5053701;28;20037;-84
2022/10/29 01:02:36;;;;;;;16.83;3.92;;;12.60;99.90;;;;;;5021239;28;20250;-84
2022/10/29 01:05:04;;;;;;;17.73;3.50;;;12.50;99.90;;;;;;5070411;28;20044;-84
2022/10/29 01:07:31;;;;;;;14.75;3.30;;;12.50;99.90;;;;;;5053538;28;20041;-84
2022/10/29 01:09:58;;;;;;;10.35;3.20;;;12.50;99.90;;;;;;5047563;28;20086;-84
2022/10/29 01:13:00;;;;;;;11.68;2.85;;;12.40;99.90;;;;;;5055877;28;20439;-84
2022/10/29 01:16:05;;;;;;;13.65;3.20;;;12.40;99.90;;;;;;5053683;28;20036;-84
2022/10/29 01:18:46;;;;;;;18.05;3.88;;;12.30;99.90;;;;;;5047034;28;20045;-84
2022/10/29 01:21:25;;;;;;;11.93;3.22;;;12.30;99.90;;;;;;5052915;28;20519;-83
2022/10/29 01:24:10;;;;;;;10.50;2.95;;;12.20;99.90;;;;;;5054462;28;20056;-84
2022/10/29 01:27:07;;;;;;;9.80;2.87;;;12.20;99.90;;;;;;5072909;28;20515;-84
2022/10/29 01:30:09;;;;;;;11.43;2.83;;;12.20;99.90;;;;;;5073248;28;20037;-84
2022/10/29 01:32:39;;;;;;;12.65;2.80;;;12.10;99.90;;;;;;5072819;28;20040;-84
2022/10/29 01:35:15;;;;;;;14.38;2.90;;;12.10;99.90;;;;;;5073101;28;20036;-84
2022/10/29 01:38:13;;;;;;;18.98;3.28;;;12.00;99.90;;;;;;5072638;28;20086;-84
2022/10/29 01:40:52;;;;;;;11.88;2.92;;;12.10;99.90;;;;;;5072674;28;20036;-84
2022/10/29 01:43:39;;;;;;;15.90;3.03;;;12.00;99.90;;;;;;5073300;28;20036;-84
2022/10/29 01:46:11;;;;;;;13.07;2.63;;;12.00;99.90;;;;;;5072791;28;20052;-84
2022/10/29 01:48:43;;;;;;;8.63;2.55;;;12.00;99.90;;;;;;5072619;28;20740;-84
2022/10/29 01:51:18;;;;;;;8.48;2.40;;;12.00;99.90;;;;;;5072744;28;20051;-84
2022/10/29 01:53:45;;;;;;;12.07;2.55;;;11.90;99.90;;;;;;5065936;28;20036;-83
2022/10/29 01:56:11;;;;;;;12.20;2.92;;;11.90;99.90;;;;;;5065374;28;20036;-83
2022/10/29 01:58:43;;;;;;;8.55;2.55;;;11.80;99.90;;;;;;5056339;28;20036;-84
2022/10/29 02:01:17;;;;;;;9.45;2.83;;;11.80;99.90;;;;;;5072730;28;20388;-84
2022/10/29 02:04:03;;;;;;;6.22;2.25;;;11.80;99.90;;;;;;5072235;28;20400;-84
2022/10/29 02:07:01;;;;;;;9.80;2.72;;;11.80;99.90;;;;;;5071946;28;20443;-84
2022/10/29 02:09:49;;;;;;;8.98;3.00;;;11.70;99.90;;;;;;5072592;28;20037;-84
2022/10/29 02:12:36;;;;;;;14.00;3.13;;;11.70;99.90;;;;;;5089022;28;20044;-84
2022/10/29 02:15:18;;;;;;;7.38;2.63;;;11.70;99.90;;;;;;5072169;28;20080;-84
2022/10/29 02:17:45;;;;;;;6.20;2.20;;;11.70;99.90;;;;;;5054169;28;20041;-84
2022/10/29 02:20:13;;;;;;;7.30;2.45;;;11.60;99.90;;;;;;5072417;28;20036;-84
2022/10/29 02:22:40;;;;;;;8.77;2.38;;;11.60;99.90;;;;;;5071908;28;20393;-84
2022/10/29 02:25:07;;;;;;;12.65;2.55;;;11.60;99.90;;;;;;5072603;28;20534;-83
2022/10/29 02:27:34;;;;;;;11.63;2.70;;;11.50;99.90;;;;;;5055779;28;20032;-84
2022/10/29 02:30:01;;;;;;;8.50;2.55;;;11.50;99.90;;;;;;5056380;28;20060;-84
2022/10/29 02:32:28;;;;;;;7.40;2.55;;;11.40;99.90;;;;;;5056028;28;20044;-84
2022/10/29 02:34:54;;;;;;;14.55;5.15;;;11.40;99.90;;;;;;5075999;28;20527;-84
2022/10/29 02:37:21;;;;;;;13.50;6.90;;;11.40;99.90;;;;;;5059755;28;20476;-84
2022/10/29 02:39:47;;;;;;;21.67;9.93;;;11.40;99.90;;;;;;5054829;28;20121;-84
2022/10/29 02:42:14;;;;;;;23.85;11.43;;;11.30;99.90;;;;;;5039970;28;20037;-83
2022/10/29 02:44:41;;;;;;;24.65;13.23;;;11.30;99.90;;;;;;5040028;28;20036;-84
2022/10/29 02:47:07;;;;;;;29.80;13.90;;;11.30;99.90;;;;;;5026474;28;20044;-83
2022/10/29 02:49:34;;;;;;;24.00;12.52;;;11.30;99.90;;;;;;5043175;28;20131;-84
2022/10/29 02:52:01;;;;;;;22.40;13.07;;;11.30;99.90;;;;;;5059508;28;20052;-84
2022/10/29 02:54:27;;;;;;;25.08;11.95;;;11.30;99.90;;;;;;5059971;28;20033;-84
2022/10/29 02:56:54;;;;;;;27.35;10.77;;;11.30;99.90;;;;;;5042931;28;20562;-84
2022/10/29 02:59:21;;;;;;;17.25;9.55;;;11.30;99.90;;;;;;5058812;28;20051;-83
2022/10/29 03:01:48;;;;;;;21.40;10.05;;;11.30;99.90;;;;;;5092145;28;20512;-84
2022/10/29 03:04:14;;;;;;;23.02;9.18;;;11.30;99.90;;;;;;5075753;28;20125;-84
2022/10/29 03:06:41;;;;;;;16.15;7.28;;;11.40;99.90;;;;;;5059167;28;20051;-84
2022/10/29 03:09:08;;;;;;;19.75;6.75;;;11.40;99.90;;;;;;5042734;28;20522;-83
2022/10/29 03:11:34;;;;;;;19.25;6.10;;;11.40;99.90;;;;;;5059223;28;20040;-84
2022/10/29 03:14:01;;;;;;;11.45;4.85;;;11.40;99.90;;;;;;5058927;28;20119;-84
2022/10/29 03:16:27;;;;;;;10.95;4.57;;;11.40;99.90;;;;;;5059106;28;20041;-84
2022/10/29 03:18:54;;;;;;;10.02;4.15;;;11.40;99.90;;;;;;5075305;28;20040;-84
2022/10/29 03:21:21;;;;;;;12.95;5.07;;;11.40;99.90;;;;;;5047002;28;20103;-83
2022/10/29 03:23:47;;;;;;;10.32;4.90;;;11.40;99.90;;;;;;5022461;28;20061;-84
2022/10/29 03:26:14;;;;;;;12.98;3.75;;;11.30;99.90;;;;;;5055511;28;20040;-84
2022/10/29 03:28:41;;;;;;;14.38;3.70;;;11.40;99.90;;;;;;5022690;28;20047;-84
2022/10/29 03:31:07;;;;;;;7.63;3.22;;;11.40;99.90;;;;;;5022861;28;20094;-84
2022/10/29 03:33:34;;;;;;;6.18;3.00;;;11.30;99.90;;;;;;5039211;28;20504;-83
2022/10/29 03:36:04;;;;;;;10.10;3.20;;;11.40;99.90;;;;;;5055121;28;20551;-84
2022/10/29 03:38:31;;;;;;;9.45;2.92;;;11.40;99.90;;;;;;5055239;28;20048;-84
2022/10/29 03:40:57;;;;;;;8.88;2.67;;;11.40;99.90;;;;;;5055026;28;20040;-84
2022/10/29 03:43:24;;;;;;;5.28;2.20;;;11.40;99.90;;;;;;5042296;28;20043;-83
2022/10/29 03:45:56;;;;;;;4.80;2.15;;;11.40;99.90;;;;;;5058571;28;20131;-84
2022/10/29 03:48:24;;;;;;;4.20;2.42;;;11.50;99.90;;;;;;5075370;28;20948;-84
2022/10/29 03:51:01;;;;;;;5.70;1.98;;;11.50;99.90;;;;;;5058371;28;20052;-84
2022/10/29 03:53:28;;;;;;;5.38;2.10;;;11.50;99.90;;;;;;5074819;28;20511;-84
2022/10/29 03:55:56;;;;;;;11.00;2.33;;;11.50;99.90;;;;;;5075051;28;20048;-84
2022/10/29 03:58:24;;;;;;;8.48;2.72;;;11.60;99.90;;;;;;5058338;28;20040;-84
2022/10/29 04:00:56;;;;;;;6.45;2.40;;;11.60;99.90;;;;;;5057849;28;20511;-84
2022/10/29 04:03:23;;;;;;;8.35;2.70;;;11.60;99.90;;;;;;5074398;28;20041;-84
2022/10/29 04:05:50;;;;;;;6.72;2.20;;;11.60;99.90;;;;;;5038067;28;20467;-84
2022/10/29 04:08:16;;;;;;;7.72;2.50;;;11.60;99.90;;;;;;5002568;28;20061;-84
2022/10/29 04:10:47;;;;;;;7.93;2.88;;;11.60;99.90;;;;;;5002497;28;20037;-84
2022/10/29 04:13:14;;;;;;;8.43;2.70;;;11.70;99.90;;;;;;5018583;28;20044;-84
2022/10/29 04:15:42;;;;;;;8.48;2.78;;;11.70;99.90;;;;;;5003033;28;20037;-84
2022/10/29 04:18:10;;;;;;;8.98;3.20;;;11.70;99.90;;;;;;5057968;28;20037;-84
2022/10/29 04:20:38;;;;;;;8.48;2.60;;;11.70;99.90;;;;;;5074327;28;20050;-84
2022/10/29 04:23:05;;;;;;;10.18;3.20;;;11.80;99.90;;;;;;5057382;28;20068;-84
2022/10/29 04:25:32;;;;;;;11.68;3.10;;;11.80;99.90;;;;;;5074470;28;20526;-84
2022/10/29 04:27:58;;;;;;;11.82;3.17;;;11.80;99.90;;;;;;5057670;28;20127;-84
2022/10/29 04:30:25;;;;;;;14.98;3.42;;;11.80;99.90;;;;;;5058071;28;20044;-84
2022/10/29 04:32:58;;;;;;;11.32;3.58;;;11.90;99.90;;;;;;5041295;28;20043;-84
2022/10/29 04:35:28;;;;;;;21.10;3.60;;;11.90;99.90;;;;;;5074332;28;20076;-83
2022/10/29 04:37:54;;;;;;;10.82;3.45;;;11.90;99.90;;;;;;5057817;28;20037;-84
2022/10/29 04:40:24;;;;;;;14.98;3.47;;;11.90;99.90;;;;;;5074064;28;20044;-84
2022/10/29 04:42:51;;;;;;;11.43;4.15;;;11.90;99.90;;;;;;5073809;28;20492;-84
2022/10/29 04:45:18;;;;;;;8.73;4.15;;;11.90;99.90;;;;;;5041587;28;20044;-84
2022/10/29 04:47:45;;;;;;;14.05;3.60;;;11.90;99.90;;;;;;5019654;28;20037;-84
2022/10/29 04:50:11;;;;;;;10.43;3.80;;;11.90;99.90;;;;;;5033934;28;20038;-84
2022/10/29 04:52:38;;;;;;;11.85;3.85;;;11.90;99.90;;;;;;5017950;28;20402;-84
2022/10/29 04:55:05;;;;;;;13.20;4.22;;;11.90;99.90;;;;;;5017627;28;20446;-84
2022/10/29 04:57:32;;;;;;;10.32;4.55;;;11.90;99.90;;;;;;5029457;28;20179;-84
2022/10/29 04:59:59;;;;;;;11.95;4.30;;;11.90;99.90;;;;;;5033786;28;20037;-84
2022/10/29 05:02:25;;;;;;;13.10;3.83;;;11.90;99.90;;;;;;5017594;28;20033;-84
2022/10/29 05:04:52;;;;;;;10.27;4.07;;;11.90;99.90;;;;;;5033443;28;20071;-84
2022/10/29 05:07:19;;;;;;;17.67;4.57;;;12.00;99.90;;;;;;5017863;28;20136;-84
2022/10/29 05:09:45;;;;;;;10.63;4.72;;;12.00;99.90;;;;;;5033943;28;20095;-84
2022/10/29 05:12:12;;;;;;;9.77;4.10;;;12.00;99.90;;;;;;5033502;28;20057;-84
2022/10/29 05:14:39;;;;;;;13.38;4.68;;;12.00;99.90;;;;;;5017600;28;20795;-84
2022/10/29 05:17:05;;;;;;;12.90;5.00;;;12.10;99.90;;;;;;5025265;28;20128;-84
2022/10/29 05:19:32;;;;;;;12.57;4.57;;;12.10;99.90;;;;;;5040413;28;20040;-84
2022/10/29 05:21:59;;;;;;;15.50;5.20;;;12.10;99.90;;;;;;5056919;28;20040;-84
2022/10/29 05:24:25;;;;;;;18.13;4.65;;;12.10;99.90;;;;;;5056669;28;20056;-84
2022/10/29 05:26:52;;;;;;;19.90;4.95;;;12.10;99.90;;;;;;5056947;28;20056;-84
2022/10/29 05:29:19;;;;;;;16.90;4.60;;;12.10;99.90;;;;;;5032442;28;20033;-84
2022/10/29 05:31:45;;;;;;;16.45;5.10;;;12.00;99.90;;;;;;5001405;28;20049;-84
2022/10/29 05:34:12;;;;;;;24.15;5.70;;;12.20;99.90;;;;;;5000835;28;20041;-84
2022/10/29 05:36:38;;;;;;;16.60;5.15;;;12.10;99.90;;;;;;5017288;28;20673;-84
2022/10/29 05:39:05;;;;;;;21.05;5.82;;;12.20;99.90;;;;;;5014241;28;20041;-84
2022/10/29 05:41:32;;;;;;;21.92;5.65;;;12.20;99.90;;;;;;5016890;28;20482;-84
2022/10/29 05:43:58;;;;;;;20.52;5.70;;;12.20;99.90;;;;;;5016827;28;20045;-84
2022/10/29 05:46:25;;;;;;;19.13;5.68;;;12.30;99.90;;;;;;5049910;28;20049;-84
2022/10/29 05:48:52;;;;;;;22.20;5.97;;;12.30;99.90;;;;;;5017198;28;20203;-84
2022/10/29 05:51:18;;;;;;;17.73;5.88;;;12.20;99.90;;;;;;5032740;28;20064;-84
2022/10/29 05:53:46;;;;;;;14.30;5.60;;;12.30;99.90;;;;;;5032917;28;20392;-84
2022/10/29 05:56:13;;;;;;;11.73;5.55;;;12.30;99.90;;;;;;5032628;28;20176;-84
2022/10/29 05:58:40;;;;;;;19.08;5.00;;;12.30;99.90;;;;;;5038789;28;20494;-84
2022/10/29 06:01:10;;;;;;;15.60;5.55;;;12.30;99.90;;;;;;5055598;28;20091;-84
2022/10/29 06:03:37;;;;;;;21.38;5.88;;;12.40;99.90;;;;;;5056443;28;20181;-84
2022/10/29 06:06:04;;;;;;;9.85;4.60;;;12.40;99.90;;;;;;5055971;28;20127;-84
2022/10/29 06:08:31;;;;;;;17.60;5.00;;;12.30;99.90;;;;;;5055885;28;20377;-84
2022/10/29 06:11:00;;;;;;;12.90;5.03;;;12.40;99.90;;;;;;5056284;28;20500;-84
2022/10/29 06:13:27;;;;;;;12.95;4.57;;;12.40;99.90;;;;;;5051231;28;20060;-84
2022/10/29 06:15:57;;;;;;;12.38;4.55;;;12.40;99.90;;;;;;5027675;28;20123;-84
2022/10/29 06:18:25;;;;;;;14.27;4.93;;;12.40;99.90;;;;;;5062942;28;20055;-84
2022/10/29 06:20:52;;;;;;;16.55;5.18;;;12.40;99.90;;;;;;5055737;28;20033;-84
2022/10/29 06:23:19;;;;;;;14.88;5.43;;;12.40;99.90;;;;;;5068762;28;20063;-84
2022/10/29 06:25:46;;;;;;;11.77;4.93;;;12.40;99.90;;;;;;5052458;28;20532;-84
2022/10/29 06:28:17;;;;;;;15.13;5.30;;;12.40;99.90;;;;;;5036189;28;20091;-84
2022/10/29 06:30:49;;;;;;;19.23;6.07;;;12.40;99.90;;;;;;5068626;28;20044;-84
2022/10/29 06:33:17;;;;;;;11.40;5.20;;;12.40;99.90;;;;;;5051769;28;20141;-84
2022/10/29 06:35:44;;;;;;;10.93;5.25;;;12.40;99.90;;;;;;5068744;28;20135;-84
2022/10/29 06:38:11;;;;;;;17.35;5.53;;;12.50;99.90;;;;;;5051974;28;20037;-84
2022/10/29 06:40:38;;;;;;;16.35;5.55;;;12.50;99.90;;;;;;5052189;28;20041;-84
2022/10/29 06:43:08;;;;;;;21.73;5.55;;;12.50;99.90;;;;;;5028785;28;20054;-84
2022/10/29 06:45:35;;;;;;;16.52;4.85;;;12.50;99.90;;;;;;5045722;28;20132;-84
2022/10/29 06:48:04;;;;;;;18.52;5.90;;;12.50;99.90;;;;;;5029237;28;20408;-84
2022/10/29 06:50:31;;;;;;;11.50;4.93;;;12.60;99.90;;;;;;5045954;28;20124;-84
2022/10/29 06:52:59;;;;;;;13.38;4.90;;;12.60;99.90;;;;;;5035648;28;20129;-84
2022/10/29 06:55:27;;;;;;;19.83;4.68;;;12.50;99.90;;;;;;5012521;28;20046;-84
2022/10/29 06:57:59;;;;;;;18.85;5.00;;;12.60;99.90;;;;;;5029151;28;20096;-84
2022/10/29 07:00:27;;;;;;;16.92;4.88;;;12.60;99.90;;;;;;5028967;28;20053;-84
2022/10/29 07:02:54;;;;;;;27.23;5.30;;;12.60;99.90;;;;;;5051714;28;20401;-83
2022/10/29 07:05:21;;;;;;;17.17;5.10;;;12.60;99.90;;;;;;5052995;28;20048;-82
2022/10/29 07:07:48;;;;;;;12.65;4.88;;;12.60;99.90;;;;;;5053192;28;20409;-83
2022/10/29 07:10:15;;;;;;;15.15;4.85;;;12.70;99.90;;;;;;5035490;28;20045;-84
2022/10/29 07:12:42;;;;;;;23.67;5.30;;;12.70;99.90;;;;;;5035799;28;20041;-84
2022/10/29 07:15:10;;;;;;;15.05;5.38;;;12.70;99.90;;;;;;5068148;28;20099;-85
2022/10/29 07:17:37;;;;;;;16.02;5.03;;;12.70;99.90;;;;;;5074752;28;20037;-83
2022/10/29 07:20:06;;;;;;;20.50;5.28;;;12.80;99.90;;;;;;5034309;28;20516;-84
2022/10/29 07:22:34;;;;;;;18.95;5.43;;;12.80;99.90;;;;;;5052145;28;20060;-84
2022/10/29 07:25:01;;;;;;;14.60;4.85;;;12.80;99.90;;;;;;5052079;28;20512;-84
2022/10/29 07:27:27;;;;;;;33.92;6.38;;;12.80;99.90;;;;;;5035379;28;20087;-84
2022/10/29 07:29:54;;;;;;;20.55;5.75;;;12.90;99.90;;;;;;5035771;28;20088;-84
2022/10/29 07:32:22;;;;;;;18.05;5.57;;;12.90;99.90;;;;;;5040663;28;20072;-84
2022/10/29 07:34:49;;;;;;;19.58;6.03;;;12.90;99.90;;;;;;5038633;28;20037;-84
2022/10/29 07:37:15;;;;;;;18.33;5.70;;;12.90;99.90;;;;;;5055040;28;20041;-84
2022/10/29 07:39:42;;;;;;;21.33;6.25;;;13.00;99.90;;;;;;5055621;28;20048;-84
2022/10/29 07:42:09;;;;;;;18.58;6.15;;;13.00;99.90;;;;;;5028124;28;20069;-85
2022/10/29 07:44:36;;;;;;;20.00;6.05;;;13.00;99.90;;;;;;5031845;28;20041;-84
2022/10/29 07:47:02;;;;;;;15.38;5.65;;;13.00;99.90;;;;;;5036358;28;20041;-84
2022/10/29 07:49:29;;;;;;;23.67;6.13;;;13.00;99.90;;;;;;5035361;28;20041;-84
2022/10/29 07:51:56;;;;;;;23.27;6.72;;;13.00;99.90;;;;;;5051487;28;20045;-84
2022/10/29 07:54:22;;;;;;;23.73;6.45;;;13.10;99.90;;;;;;5034923;28;20033;-84
2022/10/29 07:56:51;;;;;;;18.67;5.75;;;13.10;99.90;;;;;;5035225;28;20046;-83
2022/10/29 07:59:18;;;;;;;33.80;6.30;;;13.10;99.90;;;;;;5050959;28;20084;-84
2022/10/29 08:01:45;;;;;;;32.58;7.20;;;13.20;99.90;;;;;;5051492;28;20081;-84
2022/10/29 08:04:12;;;;;;;31.75;6.38;;;13.20;99.90;;;;;;5051329;28;20045;-85
2022/10/29 08:06:39;;;;;;;35.60;5.95;;;13.30;99.90;;;;;;5035128;28;20045;-85
2022/10/29 08:09:06;;;;;;;43.08;6.43;;;13.30;99.90;;;;;;5047424;28;20552;-85
2022/10/29 08:11:33;;;;;;;45.00;6.63;;;14.00;99.90;;;;;;5054839;28;20045;-84
2022/10/29 08:13:59;;;;;;;33.95;7.43;;;13.40;99.90;;;;;;5037065;28;20108;-85
2022/10/29 08:16:26;;;;;;;32.05;7.10;;;13.40;99.90;;;;;;5064055;28;20040;-86
2022/10/29 08:18:53;;;;;;;30.38;7.28;;;13.40;99.90;;;;;;5051359;28;20037;-85
2022/10/29 08:21:19;;;;;;;32.40;7.72;;;13.50;99.90;;;;;;5047107;28;20044;-86
2022/10/29 08:23:46;;;;;;;38.40;6.95;;;13.50;99.90;;;;;;5054222;28;20080;-82
2022/10/29 08:26:13;;;;;;;35.58;7.55;;;13.50;99.90;;;;;;5070827;28;20041;-79
2022/10/29 08:28:41;;;;;;;31.83;7.47;;;13.50;99.90;;;;;;5054291;28;20170;-82
2022/10/29 08:31:08;;;;;;;25.52;6.93;;;13.60;99.90;;;;;;5038543;28;20068;-82
2022/10/29 08:33:35;;;;;;;35.25;7.78;;;13.60;99.90;;;;;;5054159;28;20041;-81
2022/10/29 08:36:02;;;;;;;38.08;7.70;;;13.60;99.90;;;;;;5070689;28;20040;-82
2022/10/29 08:38:28;;;;;;;30.13;8.55;;;13.70;99.90;;;;;;5070493;28;20036;-82
2022/10/29 08:41:14;;;;;;;39.53;9.00;;;13.70;99.90;;;;;;5053466;28;20048;-82
2022/10/29 08:44:32;;;;;;;32.88;8.65;;;13.70;99.90;;;;;;5087018;28;20174;-82
2022/10/29 08:47:14;;;;;;;31.25;9.27;;;13.80;99.90;;;;;;4990991;28;20137;-84
2022/10/29 08:50:05;;;;;;;34.42;8.98;;;13.80;99.90;;;;;;4974282;28;20054;-84
2022/10/29 08:52:38;;;;;;;26.17;7.95;;;13.80;99.90;;;;;;5045180;28;20052;-84
2022/10/29 08:55:05;;;;;;;32.60;9.70;;;13.80;99.90;;;;;;5070313;28;20049;-84
2022/10/29 08:57:42;;;;;;;28.65;9.65;;;13.80;99.90;;;;;;5086205;28;20500;-84
2022/10/29 09:00:14;;;;;;;27.80;9.30;;;13.90;99.90;;;;;;5070211;28;20098;-84
2022/10/29 09:02:41;;;;;;;31.98;9.52;;;13.90;99.90;;;;;;5070027;28;20992;-84
2022/10/29 09:05:16;;;;;;;35.67;10.27;;;13.90;99.90;;;;;;5053733;28;20084;-84
2022/10/29 09:08:24;;;;;;;21.23;10.00;;;14.00;99.90;;;;;;5086331;28;20083;-84
2022/10/29 09:10:55;;;;;;;25.05;9.43;;;14.00;99.90;;;;;;5057289;28;20490;-84
2022/10/29 09:13:43;;;;;;;28.00;10.07;;;14.00;99.90;;;;;;5049836;28;20073;-84
2022/10/29 09:16:32;;;;;;;22.10;10.10;;;14.00;99.90;;;;;;5049839;28;20037;-84
2022/10/29 09:19:13;;;;;;;23.38;9.70;;;14.00;99.90;;;;;;5050167;28;20401;-84
2022/10/29 09:22:03;;;;;;;30.30;9.90;;;14.10;99.90;;;;;;5049815;28;20045;-82
2022/10/29 09:24:38;;;;;;;23.27;10.02;;;14.10;99.90;;;;;;5065877;28;20057;-82
2022/10/29 09:27:13;;;;;;;;;;;14.20;99.90;;;;;;5050757;28;20045;-82
2022/10/29 09:29:48;;;;;;;26.92;9.35;;;14.20;99.90;;;;;;5066260;28;20011;-82
2022/10/29 09:32:23;;;;;;;26.35;10.20;;;14.30;99.90;;;;;;5049972;28;20045;-82
2022/10/29 09:34:55;;;;;;;21.05;8.98;;;14.30;99.90;;;;;;5049690;28;20045;-82
2022/10/29 09:37:44;;;;;;;23.00;8.27;;;14.30;99.90;;;;;;5069457;28;20051;-81
2022/10/29 09:40:29;;;;;;;21.42;8.75;;;14.30;99.90;;;;;;5070036;28;20103;-81
2022/10/29 09:42:58;;;;;;;20.70;8.80;;;14.30;99.90;;;;;;5029307;28;20163;-81
2022/10/29 09:45:52;;;;;;;20.20;8.32;;;14.30;99.90;;;;;;4997545;28;20490;-82
2022/10/29 09:48:32;;;;;;;19.00;7.07;;;14.30;99.90;;;;;;5046402;28;20037;-82
2022/10/29 09:51:23;;;;;;;15.90;7.90;;;14.30;99.90;;;;;;5029560;28;20041;-82
2022/10/29 09:53:51;;;;;;;21.17;7.28;;;14.30;99.90;;;;;;5029356;28;20050;-83
2022/10/29 09:56:17;;;;;;;22.05;7.38;;;14.30;99.90;;;;;;5029544;28;20045;-82
2022/10/29 09:58:52;;;;;;;17.70;7.10;;;14.30;99.90;;;;;;5045371;28;20855;-83
2022/10/29 10:01:19;;;;;;;17.70;7.97;;;14.30;99.90;;;;;;5037198;28;20055;-83
2022/10/29 10:03:52;;;;;;;18.83;8.02;;;14.40;99.90;;;;;;5020643;28;20132;-83
2022/10/29 10:06:19;;;;;;;16.27;7.60;;;14.40;99.90;;;;;;5065701;28;20524;-83
2022/10/29 10:09:04;;;;;;;16.92;6.95;;;14.40;99.90;;;;;;5037658;28;20037;-83
2022/10/29 10:11:51;;;;;;;16.92;7.15;;;14.40;99.90;;;;;;5082755;28;20044;-84
2022/10/29 10:14:20;;;;;;;22.77;7.22;;;14.40;99.90;;;;;;5069297;28;20040;-83
2022/10/29 10:16:57;;;;;;;19.45;7.57;;;14.40;99.90;;;;;;5063703;28;20036;-83
2022/10/29 10:19:26;;;;;;;19.10;7.03;;;14.50;99.90;;;;;;5013590;28;20121;-83
2022/10/29 10:22:01;;;;;;;16.15;6.75;;;14.50;99.90;;;;;;5062675;28;20051;-83
2022/10/29 10:24:36;;;;;;;18.45;7.03;;;14.60;99.90;;;;;;5060205;28;20049;-83
2022/10/29 10:27:18;;;;;;;17.85;7.53;;;14.60;99.90;;;;;;5037813;28;20047;-83
2022/10/29 10:30:03;;;;;;;20.90;7.63;;;14.60;99.90;;;;;;5061016;28;20049;-82
2022/10/29 10:32:31;;;;;;;23.43;7.47;;;14.80;99.90;;;;;;5060342;28;20073;-83
2022/10/29 10:34:57;;;;;;;21.38;7.50;;;14.90;99.90;;;;;;5068265;28;20523;-83
2022/10/29 10:37:24;;;;;;;19.33;8.60;;;15.00;99.90;;;;;;5039539;28;20120;-83
2022/10/29 10:40:04;;;;;;;13.90;7.18;;;15.10;99.90;;;;;;5043035;28;20045;-83
2022/10/29 10:42:41;;;;;;;16.23;7.38;;;15.10;99.90;;;;;;5036967;28;20044;-83
2022/10/29 10:45:11;;;;;;;17.25;7.05;;;15.20;99.90;;;;;;5039358;28;20075;-83
2022/10/29 10:47:42;;;;;;;18.55;7.80;;;15.20;99.90;;;;;;5085342;28;20081;-83
2022/10/29 10:50:17;;;;;;;18.17;6.97;;;15.30;99.90;;;;;;5058468;28;20041;-83
2022/10/29 10:52:45;;;;;;;18.73;7.70;;;15.40;99.90;;;;;;5048558;28;20434;-83
2022/10/29 10:55:33;;;;;;;16.08;6.63;;;15.40;99.90;;;;;;5018896;28;20552;-83
2022/10/29 10:58:10;;;;;;;15.05;7.28;;;15.40;99.90;;;;;;5068814;28;20037;-82
2022/10/29 11:00:42;;;;;;;19.77;7.78;;;15.50;99.90;;;;;;5052777;28;20076;-83
2022/10/29 11:03:37;;;;;;;13.02;6.90;;;15.60;99.90;;;;;;5062371;28;20474;-83
2022/10/29 11:06:14;;;;;;;16.23;7.10;;;15.70;99.90;;;;;;5057236;28;20045;-83
2022/10/29 11:08:59;;;;;;;14.18;6.78;;;15.80;99.90;;;;;;5064704;28;20045;-83
2022/10/29 11:11:36;;;;;;;18.63;7.65;;;15.90;99.90;;;;;;5066293;28;20131;-83
2022/10/29 11:14:10;;;;;;;14.95;7.35;;;16.00;99.90;;;;;;5057131;28;20056;-83
2022/10/29 11:16:49;;;;;;;20.40;7.03;;;16.10;99.90;;;;;;5057967;28;20125;-83
2022/10/29 11:19:42;;;;;;;18.60;7.03;;;16.10;99.90;;;;;;5057781;28;20029;-83
2022/10/29 11:22:22;;;;;;;12.63;6.85;;;16.20;99.90;;;;;;5060278;28;20042;-83
2022/10/29 11:24:59;;;;;;;19.55;6.30;;;16.20;99.90;;;;;;5051553;28;20168;-83
2022/10/29 11:27:52;;;;;;;13.95;6.28;;;16.30;99.90;;;;;;5052168;28;20048;-83
2022/10/29 11:30:19;;;;;;;16.48;7.25;;;16.30;99.90;;;;;;5071075;28;20053;-83
2022/10/29 11:33:13;;;;;;;16.17;6.82;;;16.50;99.90;;;;;;5035210;28;20536;-83
2022/10/29 11:35:43;;;;;;;17.17;6.35;;;16.60;99.90;;;;;;5051770;28;20037;-83
2022/10/29 11:38:13;;;;;;;17.35;6.15;;;16.70;99.90;;;;;;5068403;28;20477;-83
2022/10/29 11:41:06;;;;;;;19.00;6.82;;;16.80;99.90;;;;;;5052734;28;20033;-83
2022/10/29 11:43:33;;;;;;;14.65;5.68;;;16.80;99.90;;;;;;5052107;28;20041;-83
2022/10/29 11:46:09;;;;;;;15.35;5.65;;;16.90;99.90;;;;;;5051749;28;20077;-83
2022/10/29 11:49:00;;;;;;;16.80;6.03;;;17.00;99.90;;;;;;5051778;28;20037;-83
2022/10/29 11:51:36;;;;;;;11.15;5.10;;;17.10;99.90;;;;;;5051698;28;20521;-83
2022/10/29 11:54:36;;;;;;;15.75;5.97;;;17.20;99.90;;;;;;5068043;28;20091;-83
2022/10/29 11:57:12;;;;;;;15.68;6.05;;;17.30;99.90;;;;;;5032064;28;20108;-83
2022/10/29 11:59:59;;;;;;;14.13;6.38;;;17.30;99.90;;;;;;5031979;28;20038;-83
2022/10/29 12:02:44;;;;;;;15.60;7.50;;;17.40;99.90;;;;;;5058435;28;20513;-83
2022/10/29 12:05:14;;;;;;;14.23;6.63;;;17.60;99.90;;;;;;5048980;28;20123;-83
2022/10/29 12:07:57;;;;;;;14.23;6.10;;;17.60;99.90;;;;;;5031923;28;20080;-83
2022/10/29 12:10:45;;;;;;;12.85;5.80;;;17.60;99.90;;;;;;5050825;28;20096;-83
2022/10/29 12:13:43;;;;;;;14.48;5.57;;;17.60;99.90;;;;;;5051140;28;20056;-83
2022/10/29 12:16:27;;;;;;;18.55;6.20;;;17.50;99.90;;;;;;5058913;28;21569;-83
2022/10/29 12:19:13;;;;;;;15.15;6.05;;;17.50;99.90;;;;;;5070808;28;20405;-84
2022/10/29 12:21:53;;;;;;;16.30;6.45;;;17.50;99.90;;;;;;5071026;28;20045;-84
2022/10/29 12:24:30;;;;;;;15.15;6.28;;;17.60;99.90;;;;;;5070831;28;20398;-83
2022/10/29 12:27:04;;;;;;;15.43;6.32;;;17.60;99.90;;;;;;5070799;28;20041;-84
2022/10/29 12:29:55;;;;;;;15.07;6.25;;;17.70;99.90;;;;;;5070847;28;20083;-84
2022/10/29 12:32:32;;;;;;;12.63;5.93;;;17.80;99.90;;;;;;5070626;28;20041;-84
2022/10/29 12:35:12;;;;;;;16.88;5.88;;;17.80;99.90;;;;;;5070531;28;20083;-83
2022/10/29 12:38:01;;;;;;;11.43;5.60;;;17.90;99.90;;;;;;5070672;28;20037;-83
2022/10/29 12:40:33;;;;;;;12.65;5.43;;;17.80;99.90;;;;;;5070272;28;20052;-83
2022/10/29 12:43:05;;;;;;;16.13;6.25;;;17.90;99.90;;;;;;5070413;28;20497;-84
2022/10/29 12:45:46;;;;;;;18.73;6.47;;;17.90;99.90;;;;;;5070737;28;20043;-83
2022/10/29 12:48:26;;;;;;;18.52;6.63;;;18.00;99.90;;;;;;5070283;28;20516;-84
2022/10/29 12:51:11;;;;;;;14.07;5.60;;;17.80;99.90;;;;;;5069913;28;20040;-84
2022/10/29 12:53:43;;;;;;;11.55;5.57;;;18.10;99.90;;;;;;5059480;28;20073;-83
2022/10/29 12:56:12;;;;;;;16.48;5.30;;;18.10;99.90;;;;;;5065601;28;20428;-83
2022/10/29 12:58:48;;;;;;;15.18;5.97;;;18.00;99.90;;;;;;5076375;28;20041;-84
2022/10/29 13:01:29;;;;;;;16.40;6.18;;;17.90;99.90;;;;;;5066258;28;20044;-84
2022/10/29 13:03:59;;;;;;;12.07;5.63;;;17.90;99.90;;;;;;5030071;28;20068;-84